createdAt,value
2023-05-05T00:01:19.352Z,100.00
2023-05-05T00:04:24.149Z,100.00
2023-05-05T00:07:27.193Z,100.00
2023-05-05T00:10:32.501Z,100.00
2023-05-05T00:13:35.605Z,100.00
2023-05-05T00:16:38.823Z,100.00
2023-05-05T00:19:41.961Z,100.00
2023-05-05T00:22:45.031Z,100.00
2023-05-05T00:25:49.366Z,100.00
2023-05-05T00:28:52.425Z,100.00
2023-05-05T00:31:56.322Z,100.00
2023-05-05T00:34:59.388Z,100.00
2023-05-05T00:38:02.949Z,100.00
2023-05-05T00:41:07.826Z,100.00
2023-05-05T00:44:10.830Z,100.00
2023-05-05T00:47:14.719Z,100.00
2023-05-05T00:50:24.654Z,100.00
2023-05-05T00:53:28.363Z,100.00
2023-05-05T00:56:32.949Z,100.00
2023-05-05T00:59:37.150Z,100.00
2023-05-05T01:02:41.186Z,100.00
2023-05-05T01:05:57.058Z,100.00
2023-05-05T01:09:10.254Z,100.00
2023-05-05T01:12:25.881Z,100.00
2023-05-05T01:15:34.667Z,100.00
2023-05-05T01:18:45.229Z,100.00
2023-05-05T01:21:55.448Z,100.00
2023-05-05T01:25:28.702Z,100.00
2023-05-05T01:29:00.458Z,100.00
2023-05-05T01:32:08.870Z,100.00
2023-05-05T01:35:19.267Z,100.00
2023-05-05T01:38:27.626Z,100.00
2023-05-05T01:41:36.795Z,100.00
2023-05-05T01:44:40.495Z,100.00
2023-05-05T01:47:45.952Z,100.00
2023-05-05T01:50:50.871Z,100.00
2023-05-05T01:53:56.107Z,100.00
2023-05-05T01:57:03.612Z,100.00
2023-05-05T02:00:09.783Z,100.00
2023-05-05T02:03:24.799Z,100.00
2023-05-05T02:06:32.408Z,100.00
2023-05-05T02:09:37.336Z,100.00
2023-05-05T02:12:42.278Z,100.00
2023-05-05T02:15:45.980Z,100.00
2023-05-05T02:18:51.292Z,100.00
2023-05-05T02:21:54.369Z,100.00
2023-05-05T02:24:57.370Z,100.00
2023-05-05T02:28:03.653Z,100.00
2023-05-05T02:31:08.606Z,100.00
2023-05-05T02:34:17.597Z,100.00
2023-05-05T02:37:24.659Z,100.00
2023-05-05T02:40:34.364Z,100.00
2023-05-05T02:43:42.133Z,100.00
2023-05-05T02:46:46.750Z,100.00
2023-05-05T02:49:52.167Z,100.00
2023-05-05T02:52:55.324Z,100.00
2023-05-05T02:56:10.369Z,100.00
2023-05-05T02:59:28.748Z,100.00
2023-05-05T03:02:45.628Z,100.00
2023-05-05T03:05:59.729Z,100.00
2023-05-05T03:09:08.889Z,100.00
2023-05-05T03:12:20.629Z,100.00
2023-05-05T03:15:49.260Z,100.00
2023-05-05T03:18:56.881Z,100.00
2023-05-05T03:22:01.925Z,100.00
2023-05-05T03:25:06.440Z,100.00
2023-05-05T03:28:09.882Z,100.00
2023-05-05T03:31:13.204Z,100.00
2023-05-05T03:34:16.413Z,100.00
2023-05-05T03:37:24.142Z,100.00
2023-05-05T03:40:40.435Z,100.00
2023-05-05T03:43:47.810Z,100.00
2023-05-05T03:46:50.912Z,100.00
2023-05-05T03:49:54.786Z,100.00
2023-05-05T03:52:59.143Z,100.00
2023-05-05T03:56:02.648Z,100.00
2023-05-05T03:59:07.420Z,100.00
2023-05-05T04:02:10.889Z,100.00
2023-05-05T04:05:14.117Z,100.00
2023-05-05T04:08:18.700Z,100.00
2023-05-05T04:11:24.904Z,100.00
2023-05-05T04:14:28.913Z,100.00
2023-05-05T04:17:32.243Z,100.00
2023-05-05T04:20:36.264Z,100.00
2023-05-05T04:23:40.800Z,100.00
2023-05-05T04:26:43.868Z,100.00
2023-05-05T04:29:47.814Z,100.00
2023-05-05T04:32:52.430Z,100.00
2023-05-05T04:35:55.817Z,100.00
2023-05-05T04:39:00.439Z,100.00
2023-05-05T04:42:04.250Z,100.00
2023-05-05T04:45:09.884Z,100.00
2023-05-05T04:48:13.469Z,100.00
2023-05-05T04:51:16.519Z,100.00
2023-05-05T04:54:21.351Z,100.00
2023-05-05T04:57:24.491Z,100.00
2023-05-05T05:00:28.843Z,100.00
2023-05-05T05:03:32.133Z,100.00
2023-05-05T05:06:35.704Z,100.00
2023-05-05T05:09:40.162Z,100.00
2023-05-05T05:12:43.249Z,100.00
2023-05-05T05:15:47.243Z,100.00
2023-05-05T05:18:51.002Z,100.00
2023-05-05T05:21:54.193Z,100.00
2023-05-05T05:24:58.708Z,100.00
2023-05-05T05:28:10.256Z,100.00
2023-05-05T05:31:22.272Z,100.00
2023-05-05T05:34:25.698Z,100.00
2023-05-05T05:37:30.977Z,100.00
2023-05-05T05:40:36.399Z,100.00
2023-05-05T05:43:39.466Z,100.00
2023-05-05T05:46:42.779Z,100.00
2023-05-05T05:49:46.371Z,100.00
2023-05-05T05:52:49.457Z,100.00
2023-05-05T05:55:54.024Z,100.00
2023-05-05T05:58:57.249Z,100.00
2023-05-05T06:02:00.368Z,100.00
2023-05-05T06:05:03.920Z,100.00
2023-05-05T06:08:07.292Z,100.00
2023-05-05T06:11:16.738Z,100.00
2023-05-05T06:14:20.417Z,100.00
2023-05-05T06:17:24.514Z,100.00
2023-05-05T06:20:27.560Z,100.00
2023-05-05T06:23:31.261Z,100.00
2023-05-05T06:26:43.240Z,100.00
2023-05-05T06:29:46.333Z,100.00
2023-05-05T06:32:49.376Z,100.00
2023-05-05T06:35:53.153Z,100.00
2023-05-05T06:38:56.462Z,100.00
2023-05-05T06:42:00.776Z,100.00
2023-05-05T06:45:03.879Z,100.00
2023-05-05T06:48:07.106Z,100.00
2023-05-05T06:51:10.702Z,100.00
2023-05-05T06:54:14.045Z,100.00
2023-05-05T06:57:18.338Z,100.00
2023-05-05T07:00:22.276Z,100.00
2023-05-05T07:03:25.431Z,99.65
2023-05-05T07:06:28.866Z,97.81
2023-05-05T07:09:31.969Z,100.00
2023-05-05T07:12:37.031Z,99.04
2023-05-05T07:15:46.287Z,99.31
2023-05-05T07:18:49.442Z,97.75
2023-05-05T07:21:52.905Z,96.69
2023-05-05T07:24:56.004Z,98.70
2023-05-05T07:28:00.439Z,95.28
2023-05-05T07:31:03.431Z,96.40
2023-05-05T07:34:06.448Z,93.79
2023-05-05T07:37:09.656Z,95.64
2023-05-05T07:40:13.441Z,94.87
2023-05-05T07:43:17.771Z,95.89
2023-05-05T07:46:20.843Z,93.86
2023-05-05T07:49:23.861Z,93.38
2023-05-05T07:52:43.358Z,95.28
2023-05-05T07:55:48.109Z,96.60
2023-05-05T07:58:52.420Z,94.21
2023-05-05T08:01:55.495Z,90.37
2023-05-05T08:04:58.496Z,89.18
2023-05-05T08:08:01.454Z,87.41
2023-05-05T08:11:06.378Z,89.05
2023-05-05T08:14:10.826Z,85.84
2023-05-05T08:17:13.960Z,90.26
2023-05-05T08:20:17.175Z,85.38
2023-05-05T08:23:20.209Z,86.51
2023-05-05T08:26:23.428Z,84.71
2023-05-05T08:29:27.815Z,83.80
2023-05-05T08:32:30.915Z,82.21
2023-05-05T08:35:33.967Z,84.71
2023-05-05T08:38:37.283Z,86.27
2023-05-05T08:41:40.365Z,81.95
2023-05-05T08:44:44.707Z,84.35
2023-05-05T08:47:47.754Z,81.59
2023-05-05T08:50:58.854Z,82.35
2023-05-05T08:54:05.201Z,86.04
2023-05-05T08:57:11.439Z,81.38
2023-05-05T09:00:19.411Z,83.83
2023-05-05T09:03:23.116Z,84.35
2023-05-05T09:06:28.863Z,82.21
2023-05-05T09:09:32.549Z,79.20
2023-05-05T09:12:36.521Z,79.66
2023-05-05T09:15:42.103Z,79.96
2023-05-05T09:18:46.027Z,77.82
2023-05-05T09:21:49.821Z,76.01
2023-05-05T09:24:56.818Z,76.68
2023-05-05T09:28:00.000Z,77.17
2023-05-05T09:31:17.088Z,73.65
2023-05-05T09:34:20.252Z,74.70
2023-05-05T09:37:28.970Z,79.08
2023-05-05T09:40:47.384Z,75.76
2023-05-05T09:43:53.086Z,78.33
2023-05-05T09:46:58.220Z,71.42
2023-05-05T09:50:01.964Z,73.91
2023-05-05T09:53:05.586Z,73.15
2023-05-05T09:56:10.317Z,72.62
2023-05-05T09:59:13.455Z,74.67
2023-05-05T10:02:18.105Z,74.09
2023-05-05T10:05:21.470Z,68.20
2023-05-05T10:08:26.867Z,69.63
2023-05-05T10:11:30.384Z,69.90
2023-05-05T10:14:35.055Z,73.95
2023-05-05T10:18:05.265Z,69.50
2023-05-05T10:21:12.162Z,73.88
2023-05-05T10:24:27.332Z,69.99
2023-05-05T10:27:41.748Z,71.10
2023-05-05T10:30:48.078Z,70.00
2023-05-05T10:33:56.112Z,72.71
2023-05-05T10:37:03.019Z,67.83
2023-05-05T10:40:09.796Z,67.13
2023-05-05T10:43:14.769Z,70.00
2023-05-05T10:46:18.097Z,67.38
2023-05-05T10:49:32.081Z,65.23
2023-05-05T10:52:39.794Z,65.31
2023-05-05T10:55:52.777Z,66.33
2023-05-05T10:58:59.998Z,64.17
2023-05-05T11:02:19.422Z,63.15
2023-05-05T11:05:24.031Z,65.28
2023-05-05T11:08:27.776Z,62.64
2023-05-05T11:12:04.052Z,63.78
2023-05-05T11:15:38.797Z,66.89
2023-05-05T11:18:44.475Z,59.16
2023-05-05T11:22:02.992Z,59.91
2023-05-05T11:25:48.839Z,61.67
2023-05-05T11:29:05.023Z,64.09
2023-05-05T11:32:16.554Z,59.65
2023-05-05T11:35:20.244Z,59.57
2023-05-05T11:38:30.808Z,59.74
2023-05-05T11:42:08.116Z,61.88
2023-05-05T11:45:24.875Z,60.12
2023-05-05T11:48:30.313Z,59.88
2023-05-05T11:51:33.364Z,61.02
2023-05-05T11:54:41.356Z,60.48
2023-05-05T11:57:44.479Z,59.66
2023-05-05T12:00:47.957Z,60.54
2023-05-05T12:03:51.130Z,60.88
2023-05-05T12:06:55.389Z,61.68
2023-05-05T12:10:00.230Z,59.55
2023-05-05T12:13:03.555Z,58.40
2023-05-05T12:16:10.276Z,58.39
2023-05-05T12:19:14.390Z,58.25
2023-05-05T12:22:26.056Z,57.03
2023-05-05T12:25:38.966Z,55.20
2023-05-05T12:28:46.429Z,54.66
2023-05-05T12:31:49.538Z,58.48
2023-05-05T12:34:56.217Z,57.35
2023-05-05T12:37:59.905Z,53.65
2023-05-05T12:41:04.717Z,56.33
2023-05-05T12:44:07.948Z,56.81
2023-05-05T12:47:12.615Z,56.56
2023-05-05T12:50:30.027Z,54.59
2023-05-05T12:53:33.343Z,54.79
2023-05-05T12:56:40.712Z,55.21
2023-05-05T12:59:43.833Z,55.00
2023-05-05T13:02:47.184Z,56.11
2023-05-05T13:05:50.249Z,54.49
2023-05-05T13:08:53.310Z,52.43
2023-05-05T13:11:57.935Z,56.06
2023-05-05T13:15:03.828Z,52.51
2023-05-05T13:18:07.392Z,51.68
2023-05-05T13:21:10.467Z,53.44
2023-05-05T13:24:26.184Z,54.36
2023-05-05T13:27:37.738Z,51.80
2023-05-05T13:30:41.017Z,52.88
2023-05-05T13:33:44.356Z,53.20
2023-05-05T13:36:47.433Z,54.05
2023-05-05T13:39:51.353Z,53.61
2023-05-05T13:42:56.119Z,54.38
2023-05-05T13:46:08.761Z,55.43
2023-05-05T13:49:15.596Z,52.33
2023-05-05T13:52:18.667Z,54.93
2023-05-05T13:55:22.151Z,53.18
2023-05-05T13:58:26.697Z,53.48
2023-05-05T14:01:47.448Z,52.47
2023-05-05T14:04:53.525Z,53.79
2023-05-05T14:07:56.671Z,54.28
2023-05-05T14:10:59.913Z,53.78
2023-05-05T14:14:04.263Z,52.76
2023-05-05T14:17:07.254Z,52.90
2023-05-05T14:20:16.707Z,53.84
2023-05-05T14:23:19.853Z,52.49
2023-05-05T14:26:23.235Z,54.94
2023-05-05T14:29:27.682Z,52.86
2023-05-05T14:32:30.883Z,52.99
2023-05-05T14:35:34.092Z,50.97
2023-05-05T14:44:36.103Z,55.45
2023-05-05T14:48:11.664Z,53.23
2023-05-05T14:51:20.896Z,52.91
2023-05-05T14:54:28.714Z,55.71
2023-05-05T14:57:32.227Z,52.85
2023-05-05T15:00:36.542Z,53.54
2023-05-05T15:03:39.713Z,54.41
2023-05-05T15:06:42.785Z,54.18
2023-05-05T15:09:46.221Z,54.28
2023-05-05T15:12:51.000Z,56.11
2023-05-05T15:15:55.370Z,53.82
2023-05-05T15:18:58.634Z,54.43
2023-05-05T15:22:01.869Z,57.16
2023-05-05T15:25:08.956Z,54.85
2023-05-05T15:28:12.188Z,55.55
2023-05-05T15:31:16.876Z,55.44
2023-05-05T15:34:21.139Z,54.34
2023-05-05T15:37:24.260Z,55.04
2023-05-05T15:40:27.293Z,55.00
2023-05-05T15:43:30.256Z,52.95
2023-05-05T15:46:34.829Z,54.90
2023-05-05T15:49:37.989Z,55.88
2023-05-05T15:52:41.145Z,56.56
2023-05-05T15:55:44.239Z,53.47
2023-05-05T15:58:47.395Z,55.08
2023-05-05T16:01:51.811Z,54.79
2023-05-05T16:04:54.892Z,54.78
2023-05-05T16:07:58.414Z,56.87
2023-05-05T16:11:01.467Z,56.57
2023-05-05T16:14:04.598Z,57.58
2023-05-05T16:17:09.019Z,57.46
2023-05-05T16:20:13.606Z,57.47
2023-05-05T16:23:16.844Z,57.75
2023-05-05T16:26:20.070Z,57.90
2023-05-05T16:29:23.421Z,58.96
2023-05-05T16:32:49.785Z,59.42
2023-05-05T16:35:54.999Z,59.44
2023-05-05T16:39:16.753Z,60.09
2023-05-05T16:42:34.902Z,59.69
2023-05-05T16:45:41.196Z,61.43
2023-05-05T16:48:57.198Z,61.79
2023-05-05T16:52:09.326Z,61.87
2023-05-05T16:55:30.381Z,64.09
2023-05-05T16:58:33.487Z,64.61
2023-05-05T17:01:36.463Z,64.56
2023-05-05T17:04:40.826Z,65.80
2023-05-05T17:07:43.906Z,66.36
2023-05-05T17:10:47.457Z,65.54
2023-05-05T17:13:50.869Z,66.36
2023-05-05T17:16:54.374Z,65.91
2023-05-05T17:19:58.834Z,66.52
2023-05-05T17:23:03.303Z,66.14
2023-05-05T17:26:10.974Z,69.77
2023-05-05T17:29:19.713Z,69.65
2023-05-05T17:32:22.864Z,67.78
2023-05-05T17:35:27.320Z,69.42
2023-05-05T17:38:30.345Z,70.82
2023-05-05T17:41:33.345Z,70.42
2023-05-05T17:44:36.376Z,72.77
2023-05-05T17:47:39.612Z,72.35
2023-05-05T17:50:43.995Z,73.52
2023-05-05T17:53:46.997Z,76.21
2023-05-05T17:56:50.098Z,77.20
2023-05-05T17:59:53.669Z,79.18
2023-05-05T18:02:57.041Z,81.77
2023-05-05T18:06:02.346Z,83.01
2023-05-05T18:09:05.653Z,84.72
2023-05-05T18:12:09.318Z,86.24
2023-05-05T18:15:13.155Z,86.86
2023-05-05T18:18:16.262Z,88.17
2023-05-05T18:21:22.473Z,88.92
2023-05-05T18:24:25.611Z,90.74
2023-05-05T18:27:32.493Z,91.65
2023-05-05T18:30:35.785Z,92.32
2023-05-05T18:33:39.173Z,92.41
2023-05-05T18:36:43.563Z,93.88
2023-05-05T18:39:46.603Z,93.78
2023-05-05T18:42:49.656Z,95.32
2023-05-05T18:45:52.729Z,95.59
2023-05-05T18:48:55.949Z,96.46
2023-05-05T18:52:00.374Z,96.75
2023-05-05T18:55:03.375Z,96.34
2023-05-05T18:58:07.351Z,97.76
2023-05-05T19:01:10.465Z,97.66
2023-05-05T19:04:26.577Z,98.33
2023-05-05T19:07:35.074Z,98.71
2023-05-05T19:10:38.759Z,98.37
2023-05-05T19:13:42.722Z,98.92
2023-05-05T19:16:46.101Z,98.34
2023-05-05T19:19:49.267Z,100.00
2023-05-05T19:22:53.745Z,98.01
2023-05-05T19:25:57.128Z,99.06
2023-05-05T19:29:00.810Z,99.50
2023-05-05T19:32:03.921Z,100.00
2023-05-05T19:35:10.274Z,100.00
2023-05-05T19:38:15.029Z,100.00
2023-05-05T19:41:18.169Z,100.00
2023-05-05T19:44:22.478Z,100.00
2023-05-05T19:47:26.021Z,100.00
2023-05-05T19:50:30.367Z,100.00
2023-05-05T19:53:34.846Z,100.00
2023-05-05T19:56:37.897Z,100.00
2023-05-05T19:59:41.927Z,100.00
2023-05-05T20:02:45.299Z,100.00
2023-05-05T20:05:48.461Z,100.00
2023-05-05T20:08:54.674Z,100.00
2023-05-05T20:12:00.313Z,100.00
2023-05-05T20:15:03.393Z,100.00
2023-05-05T20:18:06.926Z,100.00
2023-05-05T20:21:10.338Z,100.00
2023-05-05T20:24:14.781Z,100.00
2023-05-05T20:27:18.154Z,100.00
2023-05-05T20:30:21.312Z,100.00
2023-05-05T20:33:24.396Z,100.00
2023-05-05T20:36:27.701Z,100.00
2023-05-05T20:39:32.109Z,100.00
2023-05-05T20:42:35.334Z,100.00
2023-05-05T20:45:38.472Z,100.00
2023-05-05T20:48:43.049Z,100.00
2023-05-05T20:51:46.236Z,100.00
2023-05-05T20:54:50.652Z,100.00
2023-05-05T20:57:53.656Z,100.00
2023-05-05T21:00:56.771Z,100.00
2023-05-05T21:04:00.336Z,100.00
2023-05-05T21:07:03.406Z,100.00
2023-05-05T21:10:10.043Z,100.00
2023-05-05T21:13:13.493Z,100.00
2023-05-05T21:16:16.959Z,100.00
2023-05-05T21:19:20.072Z,100.00
2023-05-05T21:22:23.309Z,100.00
2023-05-05T21:25:30.626Z,100.00
2023-05-05T21:28:33.671Z,100.00
2023-05-05T21:31:36.671Z,100.00
2023-05-05T21:34:40.539Z,100.00
2023-05-05T21:37:43.625Z,100.00
2023-05-05T21:40:47.973Z,100.00
2023-05-05T21:43:50.981Z,100.00
2023-05-05T21:46:54.070Z,100.00
2023-05-05T21:49:58.610Z,100.00
2023-05-05T21:53:01.724Z,100.00
2023-05-05T21:56:07.791Z,100.00
2023-05-05T21:59:11.042Z,100.00
2023-05-05T22:02:14.115Z,100.00
2023-05-05T22:05:19.592Z,100.00
2023-05-05T22:08:41.047Z,100.00
2023-05-05T22:11:45.534Z,100.00
2023-05-05T22:14:48.716Z,100.00
2023-05-05T22:17:52.061Z,100.00
2023-05-05T22:20:55.093Z,100.00
2023-05-05T22:23:58.144Z,100.00
2023-05-05T22:27:03.902Z,100.00
2023-05-05T22:30:08.881Z,100.00
2023-05-05T22:33:12.308Z,100.00
2023-05-05T22:36:15.585Z,100.00
2023-05-05T22:39:19.583Z,100.00
2023-05-05T22:42:23.936Z,100.00
2023-05-05T22:45:27.201Z,100.00
2023-05-05T22:48:30.220Z,100.00
2023-05-05T22:51:33.264Z,100.00
2023-05-05T22:54:36.262Z,100.00
2023-05-05T22:57:40.863Z,100.00
2023-05-05T23:00:43.984Z,100.00
2023-05-05T23:03:47.560Z,100.00
2023-05-05T23:06:50.767Z,100.00
2023-05-05T23:09:53.953Z,100.00
2023-05-05T23:12:58.341Z,100.00
2023-05-05T23:16:01.881Z,100.00
2023-05-05T23:19:05.394Z,100.00
2023-05-05T23:22:08.563Z,100.00
2023-05-05T23:25:11.810Z,100.00
2023-05-05T23:28:16.526Z,100.00
2023-05-05T23:31:19.728Z,100.00
2023-05-05T23:34:22.867Z,100.00
2023-05-05T23:37:25.985Z,100.00
2023-05-05T23:40:29.118Z,100.00
2023-05-05T23:43:33.540Z,100.00
2023-05-05T23:46:36.719Z,100.00
2023-05-05T23:49:39.925Z,100.00
2023-05-05T23:52:42.950Z,100.00
2023-05-05T23:55:46.195Z,100.00
2023-05-05T23:58:50.875Z,100.00
